createdAt,value
2022-09-07T00:01:10.499Z,16.89
2022-09-07T00:03:37.336Z,16.83
2022-09-07T00:06:12.745Z,16.82
2022-09-07T00:08:41.518Z,16.97
2022-09-07T00:11:14.313Z,16.62
2022-09-07T00:13:43.475Z,16.78
2022-09-07T00:16:17.366Z,16.87
2022-09-07T00:18:46.230Z,16.84
2022-09-07T00:21:15.744Z,16.88
2022-09-07T00:23:42.797Z,16.89
2022-09-07T00:26:20.517Z,16.89
2022-09-07T00:28:48.478Z,16.85
2022-09-07T00:31:22.698Z,16.90
2022-09-07T00:33:51.989Z,16.96
2022-09-07T00:36:21.633Z,16.95
2022-09-07T00:38:48.550Z,16.84
2022-09-07T00:41:16.683Z,16.87
2022-09-07T00:43:48.875Z,16.76
2022-09-07T00:46:22.401Z,16.76
2022-09-07T00:49:17.351Z,16.74
2022-09-07T00:51:53.722Z,16.78
2022-09-07T00:54:44.842Z,16.68
2022-09-07T00:57:12.202Z,16.66
2022-09-07T00:59:48.110Z,16.69
2022-09-07T01:02:17.549Z,16.70
2022-09-07T01:04:49.750Z,16.72
2022-09-07T01:07:16.620Z,16.73
2022-09-07T01:09:46.857Z,16.74
2022-09-07T01:12:14.312Z,16.75
2022-09-07T01:14:46.593Z,16.76
2022-09-07T01:17:49.278Z,16.73
2022-09-07T01:20:50.830Z,16.73
2022-09-07T01:23:55.280Z,16.71
2022-09-07T01:26:50.184Z,16.75
2022-09-07T01:29:37.633Z,16.77
2022-09-07T01:32:41.806Z,16.79
2022-09-07T01:35:22.365Z,16.72
2022-09-07T01:38:15.010Z,16.71
2022-09-07T01:41:14.606Z,16.70
2022-09-07T01:44:12.229Z,16.72
2022-09-07T01:46:52.959Z,16.70
2022-09-07T01:49:25.346Z,16.73
2022-09-07T01:51:59.326Z,16.69
2022-09-07T01:54:39.145Z,16.70
2022-09-07T01:57:15.022Z,16.77
2022-09-07T01:59:48.794Z,16.61
2022-09-07T02:02:22.118Z,16.57
2022-09-07T02:05:04.054Z,16.51
2022-09-07T02:07:44.041Z,16.66
2022-09-07T02:10:16.782Z,16.70
2022-09-07T02:12:53.228Z,16.61
2022-09-07T02:15:39.273Z,16.66
2022-09-07T02:18:09.051Z,16.58
2022-09-07T02:20:39.363Z,16.58
2022-09-07T02:23:17.590Z,16.27
2022-09-07T02:25:53.717Z,16.42
2022-09-07T02:28:29.774Z,16.35
2022-09-07T02:30:56.813Z,16.36
2022-09-07T02:33:24.295Z,16.14
2022-09-07T02:35:52.164Z,16.24
2022-09-07T02:38:19.610Z,16.07
2022-09-07T02:40:54.987Z,16.08
2022-09-07T02:43:23.540Z,16.15
2022-09-07T02:46:30.461Z,16.14
2022-09-07T02:49:19.415Z,16.05
2022-09-07T02:51:55.028Z,16.10
2022-09-07T02:54:52.903Z,15.96
2022-09-07T02:57:49.908Z,15.88
2022-09-07T03:00:25.977Z,15.94
2022-09-07T03:03:21.013Z,15.98
2022-09-07T03:06:04.996Z,15.97
2022-09-07T03:08:51.009Z,15.97
2022-09-07T03:11:18.550Z,15.89
2022-09-07T03:13:45.341Z,15.81
2022-09-07T03:16:14.637Z,15.88
2022-09-07T03:18:43.157Z,15.55
2022-09-07T03:21:10.974Z,15.64
2022-09-07T03:23:37.879Z,15.66
2022-09-07T03:26:05.416Z,15.77
2022-09-07T03:28:32.353Z,15.65
2022-09-07T03:31:01.394Z,15.64
2022-09-07T03:33:28.197Z,15.76
2022-09-07T03:36:01.720Z,15.73
2022-09-07T03:38:30.689Z,15.66
2022-09-07T03:41:03.349Z,15.67
2022-09-07T03:43:31.232Z,15.64
2022-09-07T03:46:04.636Z,15.57
2022-09-07T03:48:35.593Z,15.50
2022-09-07T03:51:07.272Z,15.55
2022-09-07T03:53:37.188Z,15.56
2022-09-07T03:56:12.473Z,15.53
2022-09-07T03:58:39.659Z,15.43
2022-09-07T04:01:13.318Z,15.49
2022-09-07T04:03:40.157Z,15.35
2022-09-07T04:06:07.085Z,15.20
2022-09-07T04:08:36.224Z,15.19
2022-09-07T04:11:06.404Z,15.22
2022-09-07T04:13:35.889Z,15.24
2022-09-07T04:16:23.587Z,15.21
2022-09-07T04:18:51.824Z,15.11
2022-09-07T04:21:18.957Z,14.99
2022-09-07T04:23:45.989Z,14.99
2022-09-07T04:26:29.126Z,15.14
2022-09-07T04:28:56.776Z,15.11
2022-09-07T04:31:24.706Z,14.98
2022-09-07T04:33:54.807Z,14.87
2022-09-07T04:36:24.928Z,14.94
2022-09-07T04:39:00.869Z,14.93
2022-09-07T04:41:31.156Z,14.89
2022-09-07T04:44:02.345Z,14.83
2022-09-07T04:46:33.907Z,14.84
2022-09-07T04:49:07.073Z,14.96
2022-09-07T04:51:35.359Z,14.93
2022-09-07T04:54:04.581Z,14.93
2022-09-07T04:56:32.717Z,14.83
2022-09-07T04:59:01.949Z,14.88
2022-09-07T05:01:29.616Z,14.82
2022-09-07T05:03:56.454Z,14.93
2022-09-07T05:06:23.810Z,14.97
2022-09-07T05:08:54.426Z,14.94
2022-09-07T05:11:28.448Z,14.93
2022-09-07T05:14:00.709Z,15.01
2022-09-07T05:16:28.922Z,14.87
2022-09-07T05:19:01.757Z,14.88
2022-09-07T05:21:35.280Z,15.04
2022-09-07T05:24:04.113Z,15.02
2022-09-07T05:26:34.150Z,15.11
2022-09-07T05:32:08.653Z,14.97
2022-09-07T05:34:35.534Z,15.09
2022-09-07T05:37:02.736Z,15.15
2022-09-07T05:39:29.796Z,15.17
2022-09-07T05:41:56.912Z,15.17
2022-09-07T05:47:11.842Z,15.20
2022-09-07T05:49:38.646Z,15.07
2022-09-07T05:52:05.494Z,15.15
2022-09-07T05:54:32.286Z,15.30
2022-09-07T05:56:59.081Z,15.38
2022-09-07T05:59:25.881Z,15.46
2022-09-07T06:01:53.335Z,15.48
2022-09-07T06:04:20.323Z,15.62
2022-09-07T06:06:59.255Z,15.62
2022-09-07T06:09:34.449Z,15.68
2022-09-07T06:12:05.423Z,15.83
2022-09-07T06:14:33.539Z,15.69
2022-09-07T06:17:00.546Z,15.60
2022-09-07T06:19:27.368Z,15.74
2022-09-07T06:21:54.302Z,15.81
2022-09-07T06:24:21.120Z,16.03
2022-09-07T06:26:47.925Z,15.95
2022-09-07T06:29:14.851Z,15.94
2022-09-07T06:34:29.603Z,16.13
2022-09-07T06:36:56.778Z,16.10
2022-09-07T06:39:23.604Z,16.08
2022-09-07T06:44:25.315Z,16.09
2022-09-07T06:47:07.476Z,16.13
2022-09-07T06:49:34.329Z,15.90
2022-09-07T06:52:01.113Z,16.10
2022-09-07T06:57:14.833Z,16.45
2022-09-07T06:59:41.661Z,16.63
2022-09-07T07:02:13.610Z,16.57
2022-09-07T07:04:41.369Z,16.84
2022-09-07T07:07:15.052Z,16.99
2022-09-07T07:09:42.625Z,17.12
2022-09-07T07:12:10.876Z,17.34
2022-09-07T07:14:41.087Z,17.42
2022-09-07T07:17:11.138Z,17.54
2022-09-07T07:19:37.910Z,17.70
2022-09-07T07:22:18.784Z,17.83
2022-09-07T07:24:51.512Z,17.99
2022-09-07T07:27:18.335Z,18.20
2022-09-07T07:29:46.203Z,18.42
2022-09-07T07:32:12.986Z,18.59
2022-09-07T07:34:39.743Z,18.68
2022-09-07T07:37:06.736Z,19.08
2022-09-07T07:42:21.222Z,19.22
2022-09-07T07:44:48.736Z,19.39
2022-09-07T07:47:15.827Z,19.43
2022-09-07T07:49:42.686Z,19.39
2022-09-07T07:54:56.342Z,19.71
2022-09-07T07:57:23.319Z,19.90
2022-09-07T07:59:50.170Z,20.05
2022-09-07T08:02:17.648Z,20.13
2022-09-07T08:04:44.821Z,20.41
2022-09-07T08:07:15.269Z,20.50
2022-09-07T08:09:44.588Z,20.56
2022-09-07T08:12:16.727Z,20.69
2022-09-07T08:14:43.935Z,20.85
2022-09-07T08:17:15.019Z,21.07
2022-09-07T08:19:42.341Z,21.08
2022-09-07T08:22:10.906Z,21.38
2022-09-07T08:24:37.871Z,21.51
2022-09-07T08:27:05.007Z,21.62
2022-09-07T08:29:34.513Z,21.76
2022-09-07T08:32:04.542Z,21.80
2022-09-07T08:34:31.385Z,21.89
2022-09-07T08:36:58.407Z,22.02
2022-09-07T08:39:25.130Z,22.23
2022-09-07T08:41:51.736Z,22.29
2022-09-07T08:44:22.965Z,22.40
2022-09-07T08:46:56.494Z,22.53
2022-09-07T08:49:56.842Z,22.58
2022-09-07T08:52:39.106Z,22.59
2022-09-07T08:55:19.488Z,22.74
2022-09-07T08:58:51.323Z,22.86
2022-09-07T09:01:32.558Z,22.94
2022-09-07T09:04:17.011Z,22.78
2022-09-07T09:07:10.486Z,23.06
2022-09-07T09:10:10.730Z,23.29
2022-09-07T09:13:01.806Z,23.25
2022-09-07T09:15:44.854Z,23.22
2022-09-07T09:18:33.718Z,23.54
2022-09-07T09:21:01.272Z,23.43
2022-09-07T09:23:40.541Z,23.43
2022-09-07T09:26:13.067Z,23.37
2022-09-07T09:28:40.246Z,23.49
2022-09-07T09:31:15.863Z,23.70
2022-09-07T09:33:42.694Z,23.94
2022-09-07T09:36:31.782Z,24.12
2022-09-07T09:38:58.645Z,24.25
2022-09-07T09:41:27.063Z,24.28
2022-09-07T09:43:56.529Z,24.36
2022-09-07T09:46:34.363Z,24.27
2022-09-07T09:49:05.451Z,24.34
2022-09-07T09:54:43.928Z,24.48
2022-09-07T09:57:36.712Z,24.53
2022-09-07T10:00:10.519Z,24.63
2022-09-07T10:05:58.449Z,24.98
2022-09-07T10:08:33.421Z,24.94
2022-09-07T10:11:06.231Z,24.79
2022-09-07T10:13:46.886Z,24.93
2022-09-07T10:16:15.109Z,25.14
2022-09-07T10:18:58.810Z,25.12
2022-09-07T10:21:32.922Z,25.05
2022-09-07T10:24:05.736Z,25.23
2022-09-07T10:26:38.308Z,25.32
2022-09-07T10:29:12.557Z,25.52
2022-09-07T10:32:03.071Z,25.65
2022-09-07T10:34:48.507Z,25.98
2022-09-07T10:37:48.629Z,26.39
2022-09-07T10:40:53.072Z,26.59
2022-09-07T10:43:35.235Z,26.81
2022-09-07T10:49:33.721Z,26.95
2022-09-07T10:52:17.930Z,27.09
2022-09-07T10:54:55.280Z,27.36
2022-09-07T10:58:00.955Z,27.46
2022-09-07T11:00:49.622Z,27.42
2022-09-07T11:03:54.446Z,27.60
2022-09-07T11:06:41.525Z,27.84
2022-09-07T11:09:46.022Z,27.85
2022-09-07T11:12:36.962Z,27.98
2022-09-07T11:15:12.365Z,28.01
2022-09-07T11:17:49.355Z,28.28
2022-09-07T11:20:45.377Z,28.50
2022-09-07T11:23:20.316Z,28.70
2022-09-07T11:25:58.817Z,28.70
2022-09-07T11:29:29.178Z,28.58
2022-09-07T11:31:45.290Z,28.72
2022-09-07T11:34:26.793Z,28.71
2022-09-07T11:37:03.528Z,28.75
2022-09-07T11:39:36.545Z,28.91
2022-09-07T11:45:28.780Z,29.11
2022-09-07T11:48:05.028Z,29.35
2022-09-07T11:50:39.378Z,29.27
2022-09-07T11:53:19.009Z,29.20
2022-09-07T11:55:54.198Z,29.47
2022-09-07T11:58:20.846Z,29.64
2022-09-07T12:01:02.360Z,29.51
2022-09-07T12:04:06.624Z,29.33
2022-09-07T12:06:54.553Z,29.51
2022-09-07T12:09:46.453Z,29.49
2022-09-07T12:12:13.155Z,29.53
2022-09-07T12:15:30.605Z,29.29
2022-09-07T12:18:02.827Z,29.29
2022-09-07T12:20:48.973Z,29.12
2022-09-07T12:23:15.638Z,29.21
2022-09-07T12:25:48.194Z,29.20
2022-09-07T12:28:24.107Z,29.24
2022-09-07T12:30:56.187Z,29.14
2022-09-07T12:33:29.653Z,28.97
2022-09-07T12:35:59.090Z,28.95
2022-09-07T12:38:31.680Z,29.05
2022-09-07T12:41:04.469Z,29.12
2022-09-07T12:43:44.426Z,29.03
2022-09-07T12:46:40.929Z,28.82
2022-09-07T12:50:06.713Z,28.80
2022-09-07T12:53:08.866Z,28.62
2022-09-07T12:59:05.168Z,28.37
2022-09-07T13:01:55.988Z,28.23
2022-09-07T13:04:50.251Z,28.26
2022-09-07T13:07:51.569Z,28.35
2022-09-07T13:10:33.011Z,28.25
2022-09-07T13:13:17.793Z,28.61
2022-09-07T13:15:48.581Z,28.55
2022-09-07T13:18:27.502Z,28.44
2022-09-07T13:21:09.078Z,28.42
2022-09-07T13:23:45.489Z,28.29
2022-09-07T13:26:51.848Z,28.36
2022-09-07T13:29:24.638Z,28.34
2022-09-07T13:32:17.857Z,28.54
2022-09-07T13:34:55.203Z,28.65
2022-09-07T13:37:27.482Z,28.70
2022-09-07T13:39:58.109Z,29.01
2022-09-07T13:42:34.186Z,29.17
2022-09-07T13:45:07.326Z,29.23
2022-09-07T13:48:01.619Z,28.98
2022-09-07T13:50:34.426Z,28.97
2022-09-07T13:53:36.575Z,29.03
2022-09-07T13:56:36.850Z,29.03
2022-09-07T13:59:22.884Z,28.87
2022-09-07T14:01:50.779Z,28.98
2022-09-07T14:04:32.328Z,28.88
2022-09-07T14:07:13.142Z,28.71
2022-09-07T14:09:40.349Z,28.81
2022-09-07T14:12:16.749Z,28.82
2022-09-07T14:14:43.520Z,28.73
2022-09-07T14:17:16.859Z,28.65
2022-09-07T14:19:49.871Z,28.43
2022-09-07T14:22:24.619Z,28.50
2022-09-07T14:24:57.307Z,28.71
2022-09-07T14:27:36.857Z,28.88
2022-09-07T14:30:31.995Z,28.96
2022-09-07T14:33:17.323Z,29.12
2022-09-07T14:35:44.363Z,29.07
2022-09-07T14:38:14.244Z,29.02
2022-09-07T14:40:41.517Z,28.93
2022-09-07T14:43:27.716Z,29.02
2022-09-07T14:45:54.615Z,28.94
2022-09-07T14:48:31.496Z,28.88
2022-09-07T14:51:19.349Z,29.09
2022-09-07T14:53:55.869Z,29.05
2022-09-07T14:56:30.333Z,29.14
2022-09-07T14:58:57.155Z,29.07
2022-09-07T15:01:41.559Z,29.02
2022-09-07T15:04:21.275Z,28.82
2022-09-07T15:07:03.656Z,28.91
2022-09-07T15:09:37.105Z,29.22
2022-09-07T15:12:24.892Z,29.08
2022-09-07T15:15:21.435Z,28.76
2022-09-07T15:17:48.674Z,28.69
2022-09-07T15:20:47.560Z,28.51
2022-09-07T15:23:19.556Z,28.48
2022-09-07T15:25:53.562Z,28.43
2022-09-07T15:34:20.620Z,27.91
2022-09-07T15:36:51.013Z,27.87
2022-09-07T15:39:23.508Z,27.94
2022-09-07T15:41:51.640Z,28.06
2022-09-07T15:44:24.314Z,28.16
2022-09-07T15:49:47.412Z,28.07
2022-09-07T15:52:17.093Z,27.98
2022-09-07T15:54:44.148Z,27.98
2022-09-07T15:59:57.990Z,27.67
2022-09-07T16:05:11.636Z,27.32
2022-09-07T16:10:26.617Z,27.47
2022-09-07T16:13:02.251Z,27.01
2022-09-07T16:15:30.881Z,27.08
2022-09-07T16:17:57.681Z,27.03
2022-09-07T16:20:24.474Z,27.13
2022-09-07T16:25:39.510Z,27.04
2022-09-07T16:28:07.302Z,27.08
2022-09-07T16:30:38.927Z,26.95
2022-09-07T16:33:05.956Z,26.68
2022-09-07T16:35:33.057Z,26.51
2022-09-07T16:40:46.891Z,26.43
2022-09-07T16:43:13.682Z,26.29
2022-09-07T16:48:27.182Z,26.03
2022-09-07T16:51:01.240Z,25.94
2022-09-07T16:53:30.860Z,25.68
2022-09-07T16:56:05.998Z,25.39
2022-09-07T16:58:36.728Z,25.33
2022-09-07T17:01:06.717Z,25.31
2022-09-07T17:03:34.284Z,25.28
2022-09-07T17:06:01.198Z,25.15
2022-09-07T17:08:28.355Z,25.10
2022-09-07T17:11:23.708Z,24.74
2022-09-07T17:13:51.979Z,24.76
2022-09-07T17:16:23.301Z,24.78
2022-09-07T17:21:40.135Z,24.57
2022-09-07T17:24:09.778Z,24.39
2022-09-07T17:26:36.981Z,24.29
2022-09-07T17:29:04.159Z,24.18
2022-09-07T17:34:21.718Z,24.08
2022-09-07T17:36:48.568Z,23.98
2022-09-07T17:39:17.608Z,23.80
2022-09-07T17:41:47.382Z,23.78
2022-09-07T17:44:15.299Z,23.55
2022-09-07T17:46:42.299Z,23.56
2022-09-07T17:49:12.493Z,23.47
2022-09-07T17:51:39.835Z,23.35
2022-09-07T17:54:11.689Z,23.42
2022-09-07T17:56:40.472Z,23.42
2022-09-07T18:01:55.214Z,23.03
2022-09-07T18:04:22.920Z,22.99
2022-09-07T18:06:49.873Z,22.94
2022-09-07T18:09:17.508Z,23.01
2022-09-07T18:11:45.829Z,22.86
2022-09-07T18:14:14.360Z,22.82
2022-09-07T18:16:43.034Z,22.75
2022-09-07T18:19:11.897Z,22.64
2022-09-07T18:21:42.160Z,22.56
2022-09-07T18:24:18.258Z,22.52
2022-09-07T18:26:52.034Z,22.62
2022-09-07T18:29:32.401Z,22.57
2022-09-07T18:32:01.215Z,22.52
2022-09-07T18:34:31.889Z,22.64
2022-09-07T18:36:59.731Z,22.68
2022-09-07T18:39:27.451Z,22.54
2022-09-07T18:41:55.072Z,22.28
2022-09-07T18:47:08.894Z,22.26
2022-09-07T18:49:35.662Z,22.24
2022-09-07T18:54:50.537Z,21.77
2022-09-07T18:57:17.351Z,21.62
2022-09-07T18:59:44.159Z,21.48
2022-09-07T19:02:11.309Z,21.33
2022-09-07T19:07:29.652Z,21.32
2022-09-07T19:09:57.185Z,21.21
2022-09-07T19:12:24.573Z,21.11
2022-09-07T19:14:51.713Z,21.00
2022-09-07T19:17:19.089Z,21.02
2022-09-07T19:19:45.851Z,20.98
2022-09-07T19:22:12.646Z,21.04
2022-09-07T19:24:39.382Z,21.06
2022-09-07T19:27:07.341Z,20.96
2022-09-07T19:29:34.183Z,20.85
2022-09-07T19:32:07.803Z,20.88
2022-09-07T19:34:40.459Z,20.82
2022-09-07T19:37:10.213Z,20.82
2022-09-07T19:39:37.209Z,20.80
2022-09-07T19:42:06.140Z,20.84
2022-09-07T19:44:33.369Z,20.73
2022-09-07T19:47:01.003Z,20.83
2022-09-07T19:49:28.714Z,20.81
2022-09-07T19:51:55.559Z,20.69
2022-09-07T19:54:22.377Z,20.42
2022-09-07T19:56:49.253Z,20.32
2022-09-07T19:59:16.162Z,20.36
2022-09-07T20:01:46.498Z,20.30
2022-09-07T20:04:20.387Z,20.24
2022-09-07T20:06:50.272Z,20.25
2022-09-07T20:09:20.314Z,20.27
2022-09-07T20:11:48.165Z,20.32
2022-09-07T20:14:19.274Z,20.19
2022-09-07T20:16:46.065Z,20.19
2022-09-07T20:19:15.297Z,20.28
2022-09-07T20:21:42.822Z,20.11
2022-09-07T20:24:12.495Z,20.18
2022-09-07T20:26:39.471Z,20.16
2022-09-07T20:29:26.164Z,20.20
2022-09-07T20:31:54.087Z,20.15
2022-09-07T20:34:21.122Z,20.06
2022-09-07T20:36:50.472Z,20.09
2022-09-07T20:39:17.694Z,19.86
2022-09-07T20:41:44.567Z,19.78
2022-09-07T20:44:11.795Z,19.78
2022-09-07T20:46:39.088Z,19.79
2022-09-07T20:49:05.899Z,19.83
2022-09-07T20:51:32.901Z,19.86
2022-09-07T20:53:59.672Z,19.90
2022-09-07T20:56:30.385Z,19.92
2022-09-07T20:59:00.415Z,19.94
2022-09-07T21:01:28.609Z,19.92
2022-09-07T21:03:58.056Z,19.75
2022-09-07T21:06:26.976Z,19.83
2022-09-07T21:08:56.962Z,19.67
2022-09-07T21:11:32.467Z,19.65
2022-09-07T21:14:08.703Z,19.44
2022-09-07T21:16:36.301Z,19.35
2022-09-07T21:19:07.219Z,19.42
2022-09-07T21:21:38.921Z,19.49
2022-09-07T21:24:07.883Z,19.50
2022-09-07T21:26:34.838Z,19.41
2022-09-07T21:29:05.256Z,19.38
2022-09-07T21:31:34.302Z,19.37
2022-09-07T21:34:02.489Z,19.40
2022-09-07T21:36:29.740Z,19.43
2022-09-07T21:38:57.199Z,19.48
2022-09-07T21:41:25.192Z,19.47
2022-09-07T21:43:56.985Z,19.46
2022-09-07T21:46:24.479Z,19.35
2022-09-07T21:48:51.319Z,19.39
2022-09-07T21:51:18.653Z,19.31
2022-09-07T21:53:45.419Z,19.34
2022-09-07T21:56:14.366Z,19.32
2022-09-07T21:58:43.703Z,19.24
2022-09-07T22:01:17.267Z,19.13
2022-09-07T22:03:46.460Z,19.11
2022-09-07T22:06:14.435Z,19.14
2022-09-07T22:08:42.633Z,19.19
2022-09-07T22:11:15.249Z,19.24
2022-09-07T22:13:43.415Z,19.16
2022-09-07T22:16:10.436Z,19.00
2022-09-07T22:18:38.449Z,19.03
2022-09-07T22:21:07.904Z,18.94
2022-09-07T22:23:39.149Z,18.87
2022-09-07T22:26:07.106Z,18.91
2022-09-07T22:28:34.939Z,18.93
2022-09-07T22:31:09.557Z,18.86
2022-09-07T22:33:36.317Z,18.81
2022-09-07T22:36:18.897Z,18.84
2022-09-07T22:38:48.941Z,18.66
2022-09-07T22:41:27.967Z,18.69
2022-09-07T22:43:56.346Z,18.75
2022-09-07T22:46:26.380Z,18.80
2022-09-07T22:48:58.534Z,18.64
2022-09-07T22:51:26.830Z,18.73
2022-09-07T22:53:55.333Z,18.64
2022-09-07T22:56:26.244Z,18.56
2022-09-07T22:58:57.001Z,18.56
2022-09-07T23:01:24.784Z,18.49
2022-09-07T23:03:51.656Z,18.48
2022-09-07T23:06:24.552Z,18.40
2022-09-07T23:08:52.653Z,18.37
2022-09-07T23:11:19.887Z,18.34
2022-09-07T23:13:52.777Z,18.37
2022-09-07T23:16:20.691Z,18.35
2022-09-07T23:18:48.426Z,18.22
2022-09-07T23:21:17.132Z,18.34
2022-09-07T23:23:44.093Z,18.40
2022-09-07T23:26:10.880Z,18.40
2022-09-07T23:28:37.577Z,18.30
2022-09-07T23:31:04.339Z,18.28
2022-09-07T23:33:31.704Z,18.31
2022-09-07T23:36:02.160Z,18.32
2022-09-07T23:38:30.108Z,18.33
2022-09-07T23:40:57.880Z,18.37
2022-09-07T23:43:27.503Z,18.16
2022-09-07T23:45:54.710Z,18.22
2022-09-07T23:48:23.093Z,18.03
2022-09-07T23:50:50.108Z,17.93
2022-09-07T23:53:17.980Z,17.88
2022-09-07T23:55:46.650Z,17.93
2022-09-07T23:58:13.442Z,17.97
